Time;durP1;ratioP1;P1;durP2;ratioP2;P2;SDS_P1;SDS_P2;PMS_P1;PMS_P2;Temp;Humidity;BMP_temperature;BMP_pressure;BME280_temperature;BME280_humidity;BME280_pressure;Samples;Min_cycle;Max_cycle;Signal;HPM_P1;HPM_P2
2022/05/06 00:00:40;;;;;;;2.00;1.80;;;20.20;43.00;19.30;102036.00;;;;5023857;28;20044;-66
2022/05/06 00:03:27;;;;;;;2.17;1.77;;;20.10;42.90;19.30;102036.00;;;;5036740;28;20390;-66
2022/05/06 00:06:13;;;;;;;1.92;1.52;;;20.10;42.80;19.30;102032.00;;;;5039969;28;20045;-66
2022/05/06 00:08:59;;;;;;;1.92;1.60;;;20.20;42.90;19.30;102029.00;;;;5023646;28;20529;-66
2022/05/06 00:11:45;;;;;;;2.20;1.70;;;20.10;42.90;19.20;102031.00;;;;5020214;28;20049;-66
2022/05/06 00:14:31;;;;;;;2.40;1.45;;;20.10;43.60;19.20;102035.00;;;;5022726;28;20074;-66
2022/05/06 00:17:18;;;;;;;2.22;1.42;;;20.10;42.90;19.20;102036.00;;;;5043472;28;20415;-66
2022/05/06 00:20:06;;;;;;;2.63;2.03;;;20.10;42.90;19.20;102029.00;;;;5034265;28;20119;-66
2022/05/06 00:22:52;;;;;;;1.75;1.60;;;20.10;42.90;19.20;102037.00;;;;5038368;28;20036;-66
2022/05/06 00:25:38;;;;;;;2.85;1.67;;;20.10;42.90;19.20;102026.00;;;;5031270;28;20558;-67
2022/05/06 00:28:24;;;;;;;2.28;1.85;;;20.10;43.00;19.20;102034.00;;;;5034225;28;20045;-66
2022/05/06 00:31:10;;;;;;;2.15;1.95;;;20.10;43.00;19.20;102042.00;;;;5040057;28;20050;-66
2022/05/06 00:33:56;;;;;;;2.97;1.95;;;20.00;42.90;19.20;102034.00;;;;5024912;28;20052;-66
2022/05/06 00:36:42;;;;;;;2.75;1.52;;;20.00;43.00;19.20;102033.00;;;;5026215;28;20052;-66
2022/05/06 00:39:28;;;;;;;2.67;1.85;;;20.00;43.00;19.20;102040.00;;;;5014961;28;20386;-66
2022/05/06 00:42:16;;;;;;;2.15;1.65;;;20.00;43.00;19.20;102038.00;;;;5037480;28;20125;-66
2022/05/06 00:45:03;;;;;;;2.50;2.03;;;20.00;43.10;19.20;102044.00;;;;5006502;28;20123;-66
2022/05/06 00:47:50;;;;;;;2.30;1.70;;;20.00;43.10;19.20;102039.00;;;;5036196;28;20044;-66
2022/05/06 00:50:37;;;;;;;2.75;2.00;;;20.00;43.00;19.10;102042.00;;;;5013449;28;20067;-66
2022/05/06 00:53:24;;;;;;;2.03;1.52;;;20.00;43.10;19.10;102041.00;;;;5023154;28;20136;-66
2022/05/06 00:56:11;;;;;;;2.80;1.88;;;20.00;43.10;19.10;102030.00;;;;5019835;28;20049;-66
2022/05/06 00:58:57;;;;;;;1.85;1.65;;;20.00;43.10;19.10;102031.00;;;;5037744;28;20076;-66
2022/05/06 01:01:43;;;;;;;3.17;2.03;;;20.00;43.10;19.10;102041.00;;;;5038849;28;20036;-66
2022/05/06 01:04:29;;;;;;;2.88;2.13;;;20.00;43.10;19.10;102044.00;;;;5034462;28;20466;-66
2022/05/06 01:07:16;;;;;;;2.45;1.83;;;20.00;43.10;19.10;102049.00;;;;5026410;28;20052;-66
2022/05/06 01:10:03;;;;;;;2.57;1.70;;;20.00;43.20;19.10;102050.00;;;;5003231;28;20046;-66
2022/05/06 01:12:50;;;;;;;3.80;1.88;;;20.00;43.20;19.10;102047.00;;;;5023906;28;20067;-66
2022/05/06 01:15:37;;;;;;;4.25;1.98;;;20.00;43.10;19.10;102053.00;;;;5035578;28;20107;-66
2022/05/06 01:18:24;;;;;;;4.13;2.00;;;19.90;43.10;19.10;102041.00;;;;5033323;28;20045;-66
2022/05/06 01:21:10;;;;;;;2.17;1.80;;;19.90;43.10;19.10;102041.00;;;;5020171;28;20421;-66
2022/05/06 01:23:56;;;;;;;2.25;1.85;;;19.90;43.10;19.10;102048.00;;;;5013739;28;20037;-66
2022/05/06 01:26:55;;;;;;;2.58;2.03;;;19.90;43.10;19.10;102048.00;;;;5035835;28;20072;-67
2022/05/06 01:29:43;;;;;;;4.38;2.08;;;19.90;43.10;19.00;102052.00;;;;5025595;28;20471;-66
2022/05/06 01:32:30;;;;;;;3.55;2.08;;;19.90;43.10;19.00;102049.00;;;;5013762;28;20504;-66
2022/05/06 01:35:16;;;;;;;3.50;2.00;;;19.90;43.10;19.10;102048.00;;;;5018226;28;20107;-66
2022/05/06 01:38:04;;;;;;;1.80;1.70;;;19.90;43.10;19.00;102050.00;;;;5023612;28;20072;-66
2022/05/06 01:40:53;;;;;;;;;;;19.90;43.20;19.00;102054.00;;;;5022669;28;20072;-66
2022/05/06 01:43:44;;;;;;;3.75;1.80;;;19.90;43.10;19.00;102054.00;;;;5039506;28;20776;-66
2022/05/06 01:46:30;;;;;;;2.60;1.95;;;19.90;43.10;19.00;102049.00;;;;5033576;28;20045;-66
2022/05/06 01:49:16;;;;;;;2.88;2.25;;;19.90;43.10;19.00;102055.00;;;;5038761;28;20037;-66
2022/05/06 01:52:02;;;;;;;2.38;1.63;;;19.90;43.20;19.00;102055.00;;;;5019191;28;20118;-66
2022/05/06 01:54:48;;;;;;;2.17;1.80;;;19.80;43.10;19.00;102060.00;;;;5009068;28;20442;-66
2022/05/06 01:57:34;;;;;;;2.17;1.80;;;19.90;43.30;19.00;102059.00;;;;5033820;28;20106;-66
2022/05/06 02:00:20;;;;;;;3.10;2.13;;;19.90;43.30;19.00;102054.00;;;;5032367;28;20494;-66
2022/05/06 02:05:16;;;;;;;2.67;2.20;;;19.80;43.20;19.00;102049.00;;;;5038811;28;20045;-66
2022/05/06 02:06:12;;;;;;;2.67;1.77;;;19.80;43.20;19.00;102052.00;;;;5038190;28;20145;-66
2022/05/06 02:08:58;;;;;;;2.65;2.10;;;19.80;43.20;19.00;102056.00;;;;5046162;28;20044;-66
2022/05/06 02:11:45;;;;;;;2.33;2.00;;;19.80;43.20;19.00;102052.00;;;;5042609;28;20844;-66
2022/05/06 02:14:34;;;;;;;2.20;2.00;;;19.80;43.20;19.00;102053.00;;;;5042570;28;20849;-66
2022/05/06 02:17:20;;;;;;;2.10;1.90;;;19.80;43.20;19.00;102050.00;;;;5044583;28;20053;-66
2022/05/06 02:20:08;;;;;;;2.55;2.03;;;19.80;43.20;19.00;102053.00;;;;5034651;28;20045;-66
2022/05/06 02:22:54;;;;;;;3.33;2.05;;;19.80;43.20;19.00;102045.00;;;;5039408;28;20045;-66
2022/05/06 02:25:41;;;;;;;2.83;1.95;;;19.80;43.20;18.90;102052.00;;;;5038858;28;20041;-66
2022/05/06 02:28:27;;;;;;;3.47;1.83;;;19.80;43.20;19.00;102047.00;;;;5039061;28;20602;-66
2022/05/06 02:34:18;;;;;;;2.00;1.77;;;19.80;43.30;18.90;102050.00;;;;5038474;28;20080;-66
2022/05/06 02:37:04;;;;;;;2.28;1.90;;;19.80;43.30;18.90;102051.00;;;;5037991;28;20045;-66
2022/05/06 02:39:50;;;;;;;3.95;2.30;;;19.80;43.30;18.90;102046.00;;;;5042464;28;20133;-66
2022/05/06 02:42:36;;;;;;;2.33;2.13;;;19.80;43.30;18.90;102053.00;;;;5019435;28;20045;-66
2022/05/06 02:45:22;;;;;;;2.67;2.42;;;19.70;43.20;18.90;102056.00;;;;5021856;28;20041;-66
2022/05/06 02:48:08;;;;;;;3.40;2.30;;;19.70;43.30;18.90;102063.00;;;;5038100;28;20073;-66
2022/05/06 02:50:54;;;;;;;2.78;1.88;;;19.80;43.30;18.90;102057.00;;;;5024833;28;20057;-66
2022/05/06 02:53:40;;;;;;;2.17;1.92;;;19.80;43.30;18.90;102058.00;;;;5027343;28;20513;-66
2022/05/06 02:56:27;;;;;;;2.70;1.90;;;19.70;43.20;18.90;102056.00;;;;5036318;28;20045;-66
2022/05/06 02:59:13;;;;;;;4.85;2.08;;;19.70;43.20;18.90;102055.00;;;;5037401;28;20073;-66
2022/05/06 03:01:59;;;;;;;2.58;2.08;;;19.80;43.30;18.90;102056.00;;;;5043806;28;20550;-66
2022/05/06 03:04:45;;;;;;;3.30;2.30;;;19.70;43.30;18.90;102047.00;;;;5040971;28;20052;-66
2022/05/06 03:07:31;;;;;;;2.45;1.92;;;19.70;43.30;18.90;102038.00;;;;5038446;28;20675;-66
2022/05/06 03:10:17;;;;;;;2.63;2.15;;;19.70;43.30;18.90;102043.00;;;;5040536;28;20046;-66
2022/05/06 03:13:03;;;;;;;2.20;2.00;;;19.70;43.40;18.90;102042.00;;;;5043250;28;20113;-66
2022/05/06 03:15:49;;;;;;;3.65;2.15;;;19.70;43.40;18.90;102042.00;;;;5039038;28;20045;-66
2022/05/06 03:18:35;;;;;;;4.28;1.90;;;19.70;43.30;18.80;102039.00;;;;5033275;28;20050;-66
2022/05/06 03:21:21;;;;;;;2.28;2.08;;;19.70;43.40;18.80;102037.00;;;;5023223;28;20080;-67
2022/05/06 03:24:08;;;;;;;2.47;1.98;;;19.70;43.40;18.80;102043.00;;;;5020677;28;20394;-66
2022/05/06 03:26:54;;;;;;;2.30;2.10;;;19.70;43.30;18.80;102045.00;;;;5024983;28;20647;-66
2022/05/06 03:29:40;;;;;;;2.70;2.08;;;19.70;43.40;18.80;102037.00;;;;5039356;28;20426;-66
2022/05/06 03:32:27;;;;;;;2.30;1.98;;;19.70;43.40;18.80;102037.00;;;;5039282;28;20053;-66
2022/05/06 03:35:13;;;;;;;2.03;1.85;;;19.60;43.40;18.80;102045.00;;;;5018807;28;20045;-66
2022/05/06 03:38:00;;;;;;;3.42;2.10;;;19.60;43.30;18.80;102040.00;;;;5021718;28;20506;-66
2022/05/06 03:40:46;;;;;;;1.90;1.70;;;19.70;43.40;18.80;102047.00;;;;5039893;28;20084;-66
2022/05/06 03:43:32;;;;;;;2.78;2.10;;;19.60;43.40;18.80;102037.00;;;;5042812;28;20037;-66
2022/05/06 03:46:18;;;;;;;3.08;1.90;;;19.70;43.50;18.80;102041.00;;;;5041825;28;20048;-66
2022/05/06 03:49:04;;;;;;;2.50;2.10;;;19.60;43.40;18.80;102042.00;;;;5036115;28;20041;-66
2022/05/06 03:51:50;;;;;;;2.97;1.70;;;19.60;43.40;18.80;102044.00;;;;5034720;28;20120;-66
2022/05/06 03:54:36;;;;;;;3.10;2.13;;;19.60;43.40;18.80;102045.00;;;;5041282;28;20143;-66
2022/05/06 03:57:22;;;;;;;3.17;2.35;;;19.60;43.40;18.80;102043.00;;;;5039655;28;20390;-66
2022/05/06 04:00:10;;;;;;;2.70;2.15;;;19.60;43.40;18.80;102044.00;;;;5044668;28;20045;-66
2022/05/06 04:02:57;;;;;;;2.60;2.40;;;19.60;43.50;18.80;102041.00;;;;5028685;28;20044;-66
2022/05/06 04:05:43;;;;;;;2.22;2.03;;;19.60;43.40;18.80;102050.00;;;;5033625;28;20478;-66
2022/05/06 04:08:30;;;;;;;1.92;1.73;;;19.50;43.40;18.70;102042.00;;;;5023525;28;20029;-66
2022/05/06 04:11:19;;;;;;;2.38;1.70;;;19.60;43.50;18.70;102049.00;;;;5034205;28;20033;-66
2022/05/06 04:14:05;;;;;;;2.15;1.95;;;19.60;43.50;18.70;102051.00;;;;5027653;28;20053;-66
2022/05/06 04:16:51;;;;;;;2.13;1.85;;;19.60;43.50;18.70;102056.00;;;;5040072;28;20112;-66
2022/05/06 04:19:37;;;;;;;2.03;1.85;;;19.60;43.50;18.70;102062.00;;;;5022466;28;20067;-66
2022/05/06 04:25:35;;;;;;;2.92;2.20;;;19.60;43.60;18.70;102065.00;;;;5034607;28;20163;-66
2022/05/06 04:28:21;;;;;;;2.20;2.00;;;19.60;43.50;18.70;102060.00;;;;5039725;28;20045;-66
2022/05/06 04:31:07;;;;;;;3.10;2.38;;;19.50;43.50;18.70;102070.00;;;;5024649;28;20041;-66
2022/05/06 04:33:53;;;;;;;2.40;1.80;;;19.60;43.60;18.70;102062.00;;;;5035452;28;20636;-66
2022/05/06 04:36:40;;;;;;;2.78;1.98;;;19.50;43.60;18.70;102064.00;;;;5037058;28;20033;-66
2022/05/06 04:39:26;;;;;;;2.63;2.10;;;19.50;43.60;18.70;102067.00;;;;5038036;28;20114;-66
2022/05/06 04:42:13;;;;;;;2.42;2.00;;;19.50;43.60;18.70;102072.00;;;;5037383;28;20034;-66
2022/05/06 04:44:59;;;;;;;2.17;1.98;;;19.50;43.60;18.70;102068.00;;;;5041121;28;20525;-66
2022/05/06 04:47:45;;;;;;;2.15;1.90;;;19.50;43.60;18.70;102068.00;;;;5034052;28;20459;-66
2022/05/06 04:50:34;;;;;;;2.83;2.10;;;19.50;43.60;18.70;102064.00;;;;5041453;28;20478;-66
2022/05/06 04:53:21;;;;;;;2.80;2.60;;;19.50;43.70;18.70;102078.00;;;;5032540;28;20051;-66
2022/05/06 04:56:07;;;;;;;2.15;1.95;;;19.50;43.60;18.60;102071.00;;;;5035887;28;20552;-66
2022/05/06 04:58:53;;;;;;;2.53;2.08;;;19.50;43.60;18.60;102074.00;;;;5036984;28;20060;-66
2022/05/06 05:01:39;;;;;;;4.07;2.10;;;19.50;43.60;18.60;102074.00;;;;5037725;28;20041;-66
2022/05/06 05:04:28;;;;;;;2.47;1.90;;;19.50;43.60;18.60;102082.00;;;;5036445;28;20086;-66
2022/05/06 05:07:14;;;;;;;2.08;1.80;;;19.50;43.60;18.60;102080.00;;;;5035295;28;20116;-66
2022/05/06 05:10:00;;;;;;;2.33;1.77;;;19.50;43.60;18.60;102084.00;;;;5034111;28;20479;-66
2022/05/06 05:12:47;;;;;;;2.65;2.13;;;19.50;43.60;18.60;102089.00;;;;5035470;28;20037;-66
2022/05/06 05:15:33;;;;;;;2.23;1.93;;;19.60;43.70;18.60;102087.00;;;;5039415;28;20067;-66
2022/05/06 05:18:20;;;;;;;2.80;2.03;;;19.50;43.60;18.60;102091.00;;;;5040057;28;20045;-66
2022/05/06 05:21:06;;;;;;;2.80;2.47;;;19.40;43.60;18.60;102097.00;;;;5037665;28;20071;-66
2022/05/06 05:23:52;;;;;;;2.17;1.95;;;19.50;43.60;18.60;102095.00;;;;5037166;28;20040;-66
2022/05/06 05:26:38;;;;;;;2.60;2.15;;;19.50;43.70;18.60;102095.00;;;;5037468;28;20037;-66
2022/05/06 05:29:24;;;;;;;2.20;1.90;;;19.50;43.60;18.60;102091.00;;;;5009873;28;20041;-66
2022/05/06 05:32:11;;;;;;;2.63;2.10;;;19.50;43.60;18.60;102093.00;;;;5033052;28;20060;-66
2022/05/06 05:34:57;;;;;;;3.45;2.10;;;19.50;43.70;18.60;102095.00;;;;5020580;28;20064;-66
2022/05/06 05:37:43;;;;;;;2.75;1.95;;;19.50;43.60;18.70;102099.00;;;;5031603;28;20044;-66
2022/05/06 05:40:29;;;;;;;2.20;2.00;;;19.50;43.70;18.70;102113.00;;;;5036743;28;20466;-66
2022/05/06 05:49:24;;;;;;;3.72;2.22;;;19.50;44.40;18.70;102112.00;;;;5041996;28;20045;-66
2022/05/06 05:52:10;;;;;;;2.25;2.05;;;19.50;43.70;18.70;102110.00;;;;5037472;28;20040;-66
2022/05/06 05:54:56;;;;;;;3.13;2.17;;;19.50;43.70;18.70;102111.00;;;;5015178;28;20044;-66
2022/05/06 05:57:42;;;;;;;3.60;2.42;;;19.50;43.60;18.70;102116.00;;;;4999466;28;20048;-66
2022/05/06 06:00:29;;;;;;;6.18;2.53;;;19.60;43.60;18.70;102104.00;;;;5036932;28;20337;-66
2022/05/06 06:03:15;;;;;;;3.95;2.20;;;19.60;43.50;18.70;102107.00;;;;5037158;28;20044;-66
2022/05/06 06:06:01;;;;;;;4.63;2.72;;;19.60;43.70;18.70;102104.00;;;;5039120;28;20104;-66
2022/05/06 06:08:47;;;;;;;4.88;2.75;;;19.60;43.70;18.70;102095.00;;;;5038506;28;20047;-66
2022/05/06 06:11:33;;;;;;;9.40;3.38;;;19.60;43.70;18.70;102108.00;;;;5040084;28;20041;-66
2022/05/06 06:14:19;;;;;;;11.73;3.60;;;19.60;43.70;18.70;102105.00;;;;5009767;28;20098;-66
2022/05/06 06:17:05;;;;;;;11.93;3.25;;;19.60;43.70;18.70;102108.00;;;;5039651;28;20100;-66
2022/05/06 06:19:51;;;;;;;8.25;3.20;;;19.60;43.70;18.70;102107.00;;;;5042479;28;20079;-66
2022/05/06 06:22:37;;;;;;;8.25;3.25;;;19.60;43.70;18.70;102107.00;;;;5035859;28;20045;-66
2022/05/06 06:25:23;;;;;;;8.15;3.38;;;19.60;43.70;18.70;102114.00;;;;5038002;28;20492;-66
2022/05/06 06:28:09;;;;;;;7.00;3.63;;;19.70;43.70;18.80;102118.00;;;;5026957;28;20477;-66
2022/05/06 06:30:57;;;;;;;5.70;2.70;;;19.70;43.80;18.80;102112.00;;;;5043258;28;20053;-66
2022/05/06 06:33:43;;;;;;;7.05;3.50;;;19.70;43.80;18.80;102115.00;;;;5042816;28;20478;-66
2022/05/06 06:36:29;;;;;;;6.68;3.30;;;19.70;43.80;18.80;102119.00;;;;5042238;28;20477;-66
2022/05/06 06:39:15;;;;;;;3.78;2.80;;;19.70;43.80;18.80;102118.00;;;;5025441;28;20045;-66
2022/05/06 06:42:01;;;;;;;4.10;3.28;;;19.70;43.80;18.80;102112.00;;;;5041939;28;20052;-66
2022/05/06 06:44:48;;;;;;;5.03;2.88;;;19.70;43.80;18.80;102112.00;;;;5039594;28;20033;-66
2022/05/06 06:47:34;;;;;;;6.65;3.20;;;19.70;43.80;18.80;102116.00;;;;5042816;28;20138;-66
2022/05/06 06:50:20;;;;;;;10.13;3.55;;;19.70;43.80;18.80;102113.00;;;;5044234;28;20138;-66
2022/05/06 06:53:06;;;;;;;3.83;2.75;;;19.70;43.80;18.80;102114.00;;;;5031176;28;20052;-66
2022/05/06 06:55:53;;;;;;;5.38;3.33;;;19.80;43.80;18.80;102109.00;;;;5013144;28;20116;-66
2022/05/06 06:58:39;;;;;;;4.88;3.03;;;19.70;43.80;18.80;102114.00;;;;5039993;28;20063;-65
2022/05/06 07:01:25;;;;;;;5.70;3.05;;;19.80;43.80;18.80;102116.00;;;;5024300;28;20378;-66
2022/05/06 07:04:11;;;;;;;4.15;3.03;;;19.80;43.80;18.80;102120.00;;;;5046670;28;20037;-66
2022/05/06 07:13:06;;;;;;;7.82;3.03;;;19.80;43.70;18.80;102118.00;;;;5029875;28;20126;-66
2022/05/06 07:15:52;;;;;;;4.47;3.17;;;19.80;43.80;18.80;102129.00;;;;5025295;28;20502;-66
2022/05/06 07:18:38;;;;;;;5.32;2.90;;;19.80;43.80;18.80;102131.00;;;;5038810;28;20049;-66
2022/05/06 07:21:25;;;;;;;4.75;2.92;;;19.80;43.80;18.80;102122.00;;;;5038467;28;20068;-66
2022/05/06 07:24:11;;;;;;;6.30;3.20;;;19.80;43.80;18.90;102137.00;;;;5019308;28;20065;-66
2022/05/06 07:26:57;;;;;;;4.43;2.60;;;19.80;43.70;18.90;102119.00;;;;5026988;28;20119;-66
2022/05/06 07:29:43;;;;;;;4.68;2.97;;;19.80;43.70;18.90;102128.00;;;;5036732;28;20044;-66
2022/05/06 07:32:30;;;;;;;5.97;3.20;;;19.90;43.80;18.90;102122.00;;;;5039920;28;20934;-66
2022/05/06 07:35:16;;;;;;;5.07;3.00;;;19.90;43.80;18.90;102127.00;;;;5037300;28;20060;-66
2022/05/06 07:38:02;;;;;;;4.30;3.33;;;19.90;43.80;18.90;102125.00;;;;5047483;28;20046;-66
2022/05/06 07:40:48;;;;;;;3.45;2.78;;;19.90;43.80;18.90;102119.00;;;;5040727;28;20049;-66
2022/05/06 07:43:35;;;;;;;4.30;2.85;;;19.90;43.80;18.90;102125.00;;;;5029819;28;20045;-66
2022/05/06 07:46:23;;;;;;;4.00;3.03;;;19.90;43.80;18.90;102126.00;;;;5033607;28;20044;-65
2022/05/06 07:49:09;;;;;;;;;;;19.90;43.80;18.90;102118.00;;;;5040165;28;20049;-66
2022/05/06 07:51:55;;;;;;;6.47;3.05;;;19.90;43.60;18.90;102122.00;;;;5042352;28;19913;-66
2022/05/06 07:54:41;;;;;;;4.63;3.05;;;19.90;43.60;18.90;102116.00;;;;5022316;28;20114;-66
2022/05/06 07:57:28;;;;;;;3.40;2.70;;;19.90;43.60;18.90;102118.00;;;;5044835;28;20743;-66
2022/05/06 08:00:15;;;;;;;4.65;3.42;;;19.90;43.70;18.90;102113.00;;;;5037474;28;20041;-66
2022/05/06 08:06:05;;;;;;;4.50;3.05;;;19.90;43.70;18.90;102110.00;;;;5026055;28;20171;-65
2022/05/06 08:08:51;;;;;;;7.18;3.80;;;19.90;43.70;18.90;102107.00;;;;5015401;28;20045;-66
2022/05/06 08:11:38;;;;;;;4.63;3.70;;;20.00;43.80;18.90;102112.00;;;;5043295;28;20040;-66
2022/05/06 08:14:24;;;;;;;5.38;3.88;;;19.90;43.80;18.90;102110.00;;;;5039959;28;20135;-66
2022/05/06 08:17:10;;;;;;;4.65;3.55;;;20.00;43.80;18.90;102109.00;;;;5052572;28;20048;-66
2022/05/06 08:19:56;;;;;;;4.30;3.47;;;20.00;43.80;18.90;102104.00;;;;5036560;28;20041;-66
2022/05/06 08:22:42;;;;;;;4.82;3.58;;;20.00;43.80;18.90;102107.00;;;;5040774;28;20042;-66
2022/05/06 08:25:28;;;;;;;5.40;3.78;;;20.00;43.90;19.00;102100.00;;;;5042283;28;20040;-66
2022/05/06 08:28:14;;;;;;;6.20;3.38;;;20.00;43.90;18.90;102116.00;;;;5041595;28;20049;-66
2022/05/06 08:31:01;;;;;;;3.35;3.05;;;20.00;43.90;19.00;102111.00;;;;5040487;28;20048;-66
2022/05/06 08:33:47;;;;;;;8.60;5.57;;;19.90;43.80;18.90;102114.00;;;;5036464;28;20068;-66
2022/05/06 08:36:38;;;;;;;7.15;5.45;;;20.00;44.00;18.90;102113.00;;;;5049638;28;20044;-66
2022/05/06 08:39:24;;;;;;;4.95;3.80;;;20.00;44.20;18.90;102118.00;;;;5021563;28;20044;-66
2022/05/06 08:42:11;;;;;;;6.60;4.25;;;20.00;44.00;18.90;102118.00;;;;5043731;28;20604;-66
2022/05/06 08:51:07;;;;;;;5.78;4.00;;;20.10;44.00;18.90;102107.00;;;;5030696;28;20048;-66
2022/05/06 08:53:54;;;;;;;5.82;4.30;;;20.10;44.00;19.00;102108.00;;;;5040212;28;20054;-67
2022/05/06 08:56:40;;;;;;;5.97;3.83;;;20.10;44.00;19.00;102111.00;;;;5038920;28;20048;-66
2022/05/06 08:59:26;;;;;;;6.03;4.15;;;20.00;44.00;19.00;102106.00;;;;5033507;28;20045;-66
2022/05/06 09:02:12;;;;;;;6.30;4.32;;;20.10;44.00;19.00;102105.00;;;;5020658;28;20072;-66
2022/05/06 09:04:58;;;;;;;8.60;4.53;;;20.10;44.00;19.00;102102.00;;;;5043842;28;20406;-66
2022/05/06 09:07:58;;;;;;;7.90;5.10;;;20.10;44.00;19.00;102103.00;;;;5036061;28;20402;-66
2022/05/06 09:10:57;;;;;;;5.93;4.53;;;20.10;44.30;19.00;102102.00;;;;5036723;28;20055;-66
2022/05/06 09:13:55;;;;;;;5.18;4.38;;;20.10;44.10;19.00;102111.00;;;;5044344;28;20049;-66
2022/05/06 09:16:41;;;;;;;6.78;4.38;;;20.10;44.10;19.00;102104.00;;;;5020032;28;20040;-66
2022/05/06 09:19:28;;;;;;;6.22;4.57;;;20.10;44.10;19.00;102106.00;;;;5025538;28;20045;-67
2022/05/06 09:22:17;;;;;;;8.43;4.75;;;20.10;44.10;19.00;102115.00;;;;5046642;28;20127;-66
2022/05/06 09:25:03;;;;;;;6.32;4.38;;;20.10;44.20;19.00;102112.00;;;;5044207;28;20071;-66
2022/05/06 09:27:55;;;;;;;7.75;4.90;;;20.10;44.10;19.00;102115.00;;;;5023187;28;20045;-66
2022/05/06 09:31:05;;;;;;;7.60;4.50;;;20.20;44.20;19.00;102105.00;;;;5037793;28;20392;-66
2022/05/06 09:33:51;;;;;;;6.03;4.43;;;20.20;44.20;19.00;102113.00;;;;5017083;28;20046;-66
2022/05/06 09:36:37;;;;;;;6.05;4.43;;;20.20;44.10;19.00;102110.00;;;;5039163;28;20052;-66
2022/05/06 09:39:23;;;;;;;6.35;4.10;;;20.20;44.10;19.00;102109.00;;;;5020171;28;20040;-66
2022/05/06 09:42:10;;;;;;;6.03;4.15;;;20.20;44.10;19.00;102109.00;;;;5043358;28;20092;-66
2022/05/06 09:44:56;;;;;;;6.90;3.92;;;20.20;44.10;19.10;102107.00;;;;5043090;28;20139;-66
2022/05/06 09:47:42;;;;;;;5.43;3.78;;;20.20;44.20;19.00;102110.00;;;;5041564;28;20101;-66
2022/05/06 09:50:38;;;;;;;6.80;3.50;;;20.20;44.10;19.10;102104.00;;;;5037216;28;20032;-66
2022/05/06 09:53:24;;;;;;;5.38;3.60;;;20.20;44.20;19.10;102100.00;;;;5029380;28;20409;-66
2022/05/06 09:56:10;;;;;;;4.55;3.45;;;20.30;44.20;19.10;102098.00;;;;5037342;28;20053;-66
2022/05/06 09:58:56;;;;;;;7.90;4.25;;;20.30;44.20;19.10;102087.00;;;;5007913;28;20513;-66
2022/05/06 10:01:42;;;;;;;6.65;3.75;;;20.30;44.30;19.10;102092.00;;;;5031112;28;20075;-66
2022/05/06 10:04:29;;;;;;;4.00;2.75;;;20.30;44.20;19.10;102090.00;;;;5031971;28;20095;-66
2022/05/06 10:07:16;;;;;;;3.95;3.30;;;20.30;44.20;19.10;102089.00;;;;5037477;28;20045;-66
2022/05/06 10:10:07;;;;;;;;;;;20.30;44.90;19.10;102086.00;;;;5019818;28;20041;-66
2022/05/06 10:13:00;;;;;;;4.28;3.08;;;20.30;44.10;19.10;102082.00;;;;5022499;28;19917;-66
2022/05/06 10:15:51;;;;;;;5.10;2.85;;;20.30;44.00;19.10;102075.00;;;;5011153;28;20513;-66
2022/05/06 10:18:40;;;;;;;4.78;3.05;;;20.30;44.00;19.10;102077.00;;;;5012355;28;20045;-66
2022/05/06 10:21:47;;;;;;;5.80;2.83;;;20.30;44.00;19.10;102079.00;;;;5035126;28;20120;-66
2022/05/06 10:24:39;;;;;;;4.63;3.13;;;20.40;44.10;19.10;102069.00;;;;5032723;28;20125;-66
2022/05/06 10:34:15;;;;;;;5.35;3.03;;;20.30;44.10;19.20;102067.00;;;;5033466;28;20474;-67
2022/05/06 10:37:13;;;;;;;3.65;2.90;;;20.40;44.10;19.20;102058.00;;;;5039746;28;20044;-66
2022/05/06 10:39:59;;;;;;;;;;;20.40;44.10;19.20;102051.00;;;;5020363;28;20525;-67
2022/05/06 10:42:45;;;;;;;4.03;2.50;;;20.40;44.00;19.20;102058.00;;;;5039559;28;19913;-66
2022/05/06 10:45:33;;;;;;;4.43;3.63;;;20.40;43.90;19.20;102060.00;;;;5020797;28;20063;-66
2022/05/06 10:48:22;;;;;;;3.13;2.65;;;20.40;44.10;19.20;102057.00;;;;5017375;28;20095;-66
2022/05/06 10:51:22;;;;;;;3.78;2.40;;;20.40;44.10;19.20;102051.00;;;;5032280;28;20554;-66
2022/05/06 10:54:14;;;;;;;3.78;2.72;;;20.40;44.10;19.20;102054.00;;;;5023310;28;20037;-66
2022/05/06 10:57:07;;;;;;;3.75;2.28;;;20.40;44.00;19.20;102059.00;;;;5039321;28;20041;-66
2022/05/06 10:59:57;;;;;;;2.95;2.63;;;20.40;44.00;19.20;102057.00;;;;5039626;28;20053;-66
2022/05/06 11:02:43;;;;;;;4.97;2.83;;;20.40;44.00;19.20;102057.00;;;;5024962;28;20123;-66
2022/05/06 11:05:30;;;;;;;4.20;3.00;;;20.40;44.00;19.20;102057.00;;;;5022463;28;20040;-66
2022/05/06 11:08:19;;;;;;;3.92;2.42;;;20.40;44.10;19.20;102053.00;;;;5016174;28;20753;-66
2022/05/06 11:11:15;;;;;;;3.25;2.55;;;20.40;44.00;19.20;102052.00;;;;5034097;28;20041;-66
2022/05/06 11:14:20;;;;;;;6.78;2.60;;;20.40;44.10;19.30;102044.00;;;;5044691;28;20128;-66
2022/05/06 11:17:18;;;;;;;4.07;2.50;;;20.40;44.10;19.20;102046.00;;;;5039170;28;20047;-66
2022/05/06 11:20:17;;;;;;;4.97;2.70;;;20.50;44.00;19.30;102048.00;;;;5029317;28;20060;-66
2022/05/06 11:23:11;;;;;;;2.88;2.35;;;20.50;44.00;19.30;102039.00;;;;5045206;28;20040;-66
2022/05/06 11:25:57;;;;;;;3.70;2.67;;;20.50;44.00;19.20;102048.00;;;;5045866;28;20041;-66
2022/05/06 11:29:03;;;;;;;5.00;2.80;;;20.50;44.00;19.30;102038.00;;;;5037701;28;20064;-66
2022/05/06 11:31:49;;;;;;;3.45;2.80;;;20.50;44.10;19.30;102037.00;;;;5030435;28;20128;-66
2022/05/06 11:34:35;;;;;;;4.05;2.38;;;20.60;44.10;19.30;102038.00;;;;5017231;28;20511;-66
2022/05/06 11:37:33;;;;;;;4.40;2.45;;;20.50;44.00;19.30;102036.00;;;;5020217;28;20038;-66
2022/05/06 11:43:21;;;;;;;4.40;2.38;;;20.50;44.00;19.30;102033.00;;;;5038171;28;20056;-66
2022/05/06 11:49:11;;;;;;;3.55;2.50;;;20.50;44.00;19.30;102024.00;;;;5049619;28;20049;-66
2022/05/06 11:51:58;;;;;;;6.30;2.92;;;20.60;44.10;19.30;102025.00;;;;4996674;28;20049;-66
2022/05/06 11:54:44;;;;;;;3.63;2.67;;;20.50;44.00;19.30;102019.00;;;;5027722;28;20060;-66
2022/05/06 11:57:30;;;;;;;3.88;2.22;;;20.50;44.10;19.30;102022.00;;;;5013985;28;20033;-66
2022/05/06 12:00:17;;;;;;;3.20;2.47;;;20.60;44.10;19.30;102020.00;;;;5031267;28;20044;-66
2022/05/06 12:03:04;;;;;;;3.67;2.58;;;20.60;44.10;19.30;102012.00;;;;5015801;28;20042;-66
2022/05/06 12:06:10;;;;;;;2.95;2.03;;;20.60;44.10;19.30;102009.00;;;;5023011;28;20034;-66
2022/05/06 12:09:16;;;;;;;4.95;2.67;;;20.60;44.10;19.40;102004.00;;;;5036937;28;20420;-66
2022/05/06 12:12:03;;;;;;;4.55;3.17;;;20.60;44.00;19.30;102008.00;;;;5021750;28;20048;-66
2022/05/06 12:14:49;;;;;;;4.05;2.75;;;20.60;44.00;19.40;102002.00;;;;5034769;28;20064;-66
2022/05/06 12:17:36;;;;;;;5.20;3.30;;;20.60;44.10;19.40;102009.00;;;;5014446;28;20040;-66
2022/05/06 12:20:37;;;;;;;3.03;2.13;;;20.60;44.10;19.40;102005.00;;;;5006335;28;20040;-66
2022/05/06 12:23:28;;;;;;;3.83;2.20;;;20.60;44.20;19.40;102005.00;;;;5041347;28;20049;-66
2022/05/06 12:26:35;;;;;;;5.25;3.00;;;20.70;44.10;19.40;101996.00;;;;5013919;28;20506;-66
2022/05/06 12:29:21;;;;;;;5.38;2.53;;;20.70;44.10;19.40;102000.00;;;;5040663;28;20049;-66
2022/05/06 12:32:08;;;;;;;4.57;2.55;;;20.70;44.10;19.40;101993.00;;;;5039532;28;20132;-66
2022/05/06 12:35:09;;;;;;;3.22;2.55;;;20.70;44.10;19.40;101992.00;;;;5024974;28;20041;-66
2022/05/06 12:37:56;;;;;;;3.50;2.65;;;20.70;44.10;19.40;102005.00;;;;5007976;28;20041;-66
2022/05/06 12:40:43;;;;;;;6.43;2.42;;;20.80;44.10;19.40;101997.00;;;;5017028;28;20426;-66
2022/05/06 12:43:29;;;;;;;2.65;2.40;;;20.80;44.00;19.40;101992.00;;;;5035404;28;20033;-66
2022/05/06 12:46:29;;;;;;;3.80;2.58;;;20.80;44.00;19.50;101993.00;;;;5038789;28;20628;-66
2022/05/06 12:52:19;;;;;;;4.45;2.20;;;20.70;43.90;19.40;101982.00;;;;5037671;28;20045;-66
2022/05/06 12:55:06;;;;;;;3.53;2.17;;;20.80;43.90;19.50;101969.00;;;;5036078;28;20108;-66
2022/05/06 12:57:52;;;;;;;3.07;2.37;;;20.80;43.70;19.50;101986.00;;;;5024483;28;20049;-66
2022/05/06 13:00:39;;;;;;;4.10;2.42;;;20.80;44.00;19.50;101985.00;;;;5021917;28;20045;-66